createdAt,value
2019-04-27T00:01:23.641Z,13.96
2019-04-27T00:04:11.667Z,13.94
2019-04-27T00:06:42.949Z,13.91
2019-04-27T00:09:23.667Z,13.89
2019-04-27T00:12:03.474Z,13.87
2019-04-27T00:14:33.570Z,13.95
2019-04-27T00:17:40.442Z,14.03
2019-04-27T00:19:53.410Z,14.06
2019-04-27T00:22:33.443Z,14.00
2019-04-27T00:25:03.529Z,14.07
2019-04-27T00:27:33.487Z,13.86
2019-04-27T00:30:03.875Z,13.89
2019-04-27T00:32:33.270Z,13.93
2019-04-27T00:35:03.695Z,14.03
2019-04-27T00:37:45.771Z,14.06
2019-04-27T00:40:15.974Z,13.98
2019-04-27T00:42:44.556Z,14.01
2019-04-27T00:45:13.625Z,13.97
2019-04-27T00:47:54.626Z,14.04
2019-04-27T00:50:13.345Z,14.00
2019-04-27T00:52:42.941Z,14.01
2019-04-27T00:55:13.080Z,14.05
2019-04-27T00:57:49.475Z,14.07
2019-04-27T01:00:34.365Z,14.10
2019-04-27T01:03:04.397Z,14.06
2019-04-27T01:05:33.846Z,14.08
2019-04-27T01:08:03.828Z,14.05
2019-04-27T01:10:33.479Z,13.99
2019-04-27T01:13:03.279Z,13.99
2019-04-27T01:15:33.996Z,13.91
2019-04-27T01:18:12.301Z,13.94
2019-04-27T01:20:33.469Z,13.91
2019-04-27T01:23:01.979Z,13.83
2019-04-27T01:25:32.355Z,13.85
2019-04-27T01:28:20.785Z,13.92
2019-04-27T01:30:56.764Z,13.88
2019-04-27T01:33:25.242Z,13.90
2019-04-27T01:35:53.699Z,13.80
2019-04-27T01:38:22.136Z,13.56
2019-04-27T01:40:50.638Z,13.69
2019-04-27T01:43:19.080Z,13.53
2019-04-27T01:45:48.823Z,13.52
2019-04-27T01:48:23.748Z,13.53
2019-04-27T01:50:49.209Z,13.62
2019-04-27T01:53:19.018Z,13.53
2019-04-27T01:55:49.167Z,13.56
2019-04-27T01:58:20.157Z,13.54
2019-04-27T02:00:50.498Z,13.55
2019-04-27T02:03:38.615Z,13.33
2019-04-27T02:06:07.200Z,13.15
2019-04-27T02:08:35.633Z,12.97
2019-04-27T02:11:04.741Z,12.99
2019-04-27T02:13:33.214Z,13.03
2019-04-27T02:16:01.681Z,12.90
2019-04-27T02:18:37.424Z,12.99
2019-04-27T02:21:00.631Z,12.87
2019-04-27T02:23:29.412Z,13.02
2019-04-27T02:25:58.616Z,13.17
2019-04-27T02:28:40.622Z,13.21
2019-04-27T02:31:19.857Z,13.30
2019-04-27T02:34:04.952Z,13.12
2019-04-27T02:36:33.420Z,13.15
2019-04-27T02:39:01.881Z,13.21
2019-04-27T02:41:30.376Z,13.32
2019-04-27T02:44:03.477Z,13.32
2019-04-27T02:46:31.939Z,13.39
2019-04-27T02:49:06.441Z,13.32
2019-04-27T02:51:35.034Z,13.30
2019-04-27T02:54:03.561Z,13.29
2019-04-27T02:56:31.943Z,13.31
2019-04-27T02:59:00.456Z,13.19
2019-04-27T03:01:30.838Z,13.27
2019-04-27T03:04:00.352Z,13.24
2019-04-27T03:06:29.958Z,13.27
2019-04-27T03:09:00.370Z,13.34
2019-04-27T03:11:30.919Z,13.39
2019-04-27T03:14:09.875Z,13.40
2019-04-27T03:16:50.615Z,13.23
2019-04-27T03:19:21.863Z,13.27
2019-04-27T03:21:55.132Z,13.20
2019-04-27T03:24:25.183Z,13.06
2019-04-27T03:26:55.316Z,12.99
2019-04-27T03:29:24.289Z,13.07
2019-04-27T03:31:54.454Z,13.09
2019-04-27T03:34:23.169Z,12.97
2019-04-27T03:36:51.829Z,12.56
2019-04-27T03:39:20.304Z,12.30
2019-04-27T03:41:50.213Z,12.17
2019-04-27T03:44:19.414Z,12.35
2019-04-27T03:46:49.619Z,12.18
2019-04-27T03:49:29.357Z,12.15
2019-04-27T03:51:50.269Z,11.91
2019-04-27T03:54:22.167Z,11.92
2019-04-27T03:56:52.173Z,12.17
2019-04-27T03:59:29.914Z,12.27
2019-04-27T04:01:58.980Z,12.25
2019-04-27T04:04:29.675Z,12.38
2019-04-27T04:07:15.011Z,12.34
2019-04-27T04:09:43.745Z,12.14
2019-04-27T04:12:30.366Z,12.29
2019-04-27T04:14:59.782Z,12.48
2019-04-27T04:17:30.688Z,12.43
2019-04-27T04:20:01.568Z,12.56
2019-04-27T04:22:30.417Z,12.45
2019-04-27T04:24:59.893Z,12.26
2019-04-27T04:27:29.930Z,12.16
2019-04-27T04:29:59.412Z,12.32
2019-04-27T04:32:29.859Z,12.52
2019-04-27T04:35:21.105Z,12.58
2019-04-27T04:37:49.610Z,12.67
2019-04-27T04:40:23.143Z,12.70
2019-04-27T04:42:52.297Z,12.59
2019-04-27T04:45:30.489Z,12.44
2019-04-27T04:48:00.309Z,12.50
2019-04-27T04:50:30.404Z,12.58
2019-04-27T04:52:59.975Z,12.68
2019-04-27T04:55:30.644Z,12.60
2019-04-27T04:57:59.148Z,12.48
2019-04-27T05:00:29.629Z,12.69
2019-04-27T05:02:59.464Z,12.70
2019-04-27T05:05:29.322Z,12.50
2019-04-27T05:07:58.760Z,12.31
2019-04-27T05:10:28.840Z,12.48
2019-04-27T05:12:59.014Z,12.54
2019-04-27T05:15:29.283Z,12.38
2019-04-27T05:17:59.158Z,12.26
2019-04-27T05:20:39.703Z,12.36
2019-04-27T05:23:09.616Z,12.45
2019-04-27T05:25:39.214Z,12.72
2019-04-27T05:28:09.904Z,12.49
2019-04-27T05:30:39.238Z,12.70
2019-04-27T05:33:11.281Z,12.78
2019-04-27T05:35:41.141Z,12.74
2019-04-27T05:38:12.947Z,12.79
2019-04-27T05:40:40.053Z,12.61
2019-04-27T05:43:09.189Z,12.45
2019-04-27T05:46:01.888Z,12.37
2019-04-27T05:48:32.023Z,12.46
2019-04-27T05:51:01.990Z,12.29
2019-04-27T05:53:30.846Z,12.34
2019-04-27T05:55:59.595Z,12.49
2019-04-27T05:58:28.897Z,12.64
2019-04-27T06:00:59.496Z,12.84
2019-04-27T06:03:29.634Z,12.94
2019-04-27T06:06:01.391Z,13.14
2019-04-27T06:08:29.466Z,12.67
2019-04-27T06:10:59.258Z,13.02
2019-04-27T06:13:30.748Z,12.75
2019-04-27T06:15:59.252Z,12.89
2019-04-27T06:18:29.412Z,13.11
2019-04-27T06:20:59.684Z,13.27
2019-04-27T06:23:28.940Z,13.14
2019-04-27T06:25:57.856Z,13.37
2019-04-27T06:28:26.438Z,13.29
2019-04-27T06:30:54.967Z,13.15
2019-04-27T06:33:31.973Z,13.47
2019-04-27T06:35:53.673Z,13.25
2019-04-27T06:38:22.112Z,13.15
2019-04-27T06:40:50.499Z,13.16
2019-04-27T06:43:19.055Z,12.85
2019-04-27T06:45:48.803Z,12.92
2019-04-27T06:48:19.312Z,12.90
2019-04-27T06:50:50.231Z,12.94
2019-04-27T06:53:19.129Z,13.01
2019-04-27T06:55:49.665Z,12.80
2019-04-27T06:58:19.970Z,12.89
2019-04-27T07:00:49.577Z,13.08
2019-04-27T07:03:18.898Z,13.11
2019-04-27T07:05:48.721Z,13.15
2019-04-27T07:08:18.627Z,13.13
2019-04-27T07:10:49.037Z,13.20
2019-04-27T07:13:19.417Z,13.26
2019-04-27T07:15:48.526Z,13.10
2019-04-27T07:18:18.641Z,13.00
2019-04-27T07:20:48.530Z,12.96
2019-04-27T07:23:18.667Z,12.97
2019-04-27T07:25:48.784Z,12.97
2019-04-27T07:28:18.967Z,13.21
2019-04-27T07:30:48.757Z,13.32
2019-04-27T07:33:18.598Z,13.66
2019-04-27T07:35:48.937Z,13.60
2019-04-27T07:38:19.223Z,13.82
2019-04-27T07:40:48.862Z,13.88
2019-04-27T07:43:29.312Z,13.81
2019-04-27T07:45:59.049Z,13.69
2019-04-27T07:48:28.574Z,13.72
2019-04-27T07:50:58.982Z,13.44
2019-04-27T07:53:29.135Z,13.59
2019-04-27T07:55:59.273Z,13.52
2019-04-27T07:58:29.501Z,13.47
2019-04-27T08:00:59.458Z,13.59
2019-04-27T08:03:29.138Z,13.45
2019-04-27T08:05:58.863Z,13.36
2019-04-27T08:08:28.604Z,13.53
2019-04-27T08:10:59.376Z,13.75
2019-04-27T08:13:29.445Z,13.65
2019-04-27T08:15:59.521Z,13.57
2019-04-27T08:18:30.274Z,13.73
2019-04-27T08:20:59.117Z,13.66
2019-04-27T08:23:29.566Z,13.76
2019-04-27T08:25:58.875Z,13.92
2019-04-27T08:28:29.299Z,14.13
2019-04-27T08:31:00.405Z,14.42
2019-04-27T08:33:29.277Z,14.69
2019-04-27T08:35:59.053Z,15.07
2019-04-27T08:38:28.924Z,15.66
2019-04-27T08:40:59.199Z,16.19
2019-04-27T08:43:29.018Z,16.08
2019-04-27T08:45:58.911Z,16.55
2019-04-27T08:48:34.686Z,16.47
2019-04-27T08:50:59.323Z,16.85
2019-04-27T08:53:29.819Z,16.91
2019-04-27T08:55:59.166Z,16.93
2019-04-27T08:58:28.626Z,17.01
2019-04-27T09:00:58.929Z,17.05
2019-04-27T09:03:29.308Z,16.68
2019-04-27T09:05:58.994Z,16.30
2019-04-27T09:08:29.352Z,16.26
2019-04-27T09:13:51.465Z,16.02
2019-04-27T09:16:39.880Z,15.95
2019-04-27T09:19:10.010Z,16.25
2019-04-27T09:21:40.106Z,16.24
2019-04-27T09:24:09.450Z,16.14
2019-04-27T09:26:39.029Z,15.86
2019-04-27T09:29:08.693Z,15.83
2019-04-27T09:31:37.468Z,16.14
2019-04-27T09:34:05.926Z,16.51
2019-04-27T09:36:34.321Z,16.82
2019-04-27T09:39:03.002Z,17.07
2019-04-27T09:41:31.507Z,17.32
2019-04-27T09:44:02.411Z,17.07
2019-04-27T09:46:30.148Z,17.26
2019-04-27T09:48:58.537Z,17.44
2019-04-27T09:51:27.008Z,17.49
2019-04-27T09:53:56.350Z,17.68
2019-04-27T09:56:26.114Z,17.46
2019-04-27T09:58:57.087Z,17.67
2019-04-27T10:01:26.499Z,17.84
2019-04-27T10:03:56.643Z,18.06
2019-04-27T10:06:29.654Z,18.09
2019-04-27T10:08:55.948Z,17.45
2019-04-27T10:11:26.505Z,17.22
2019-04-27T10:13:55.616Z,17.10
2019-04-27T10:16:25.696Z,17.38
2019-04-27T10:18:54.278Z,17.59
2019-04-27T10:21:22.720Z,17.30
2019-04-27T10:23:51.430Z,17.59
2019-04-27T10:26:19.874Z,17.73
2019-04-27T10:28:48.406Z,17.80
2019-04-27T10:31:16.864Z,17.77
2019-04-27T10:33:45.825Z,17.70
2019-04-27T10:36:15.522Z,17.78
2019-04-27T10:38:45.508Z,18.06
2019-04-27T10:41:15.817Z,18.78
2019-04-27T10:43:44.475Z,18.73
2019-04-27T10:46:13.249Z,18.95
2019-04-27T10:48:41.785Z,19.18
2019-04-27T10:51:10.614Z,18.45
2019-04-27T10:53:39.119Z,17.91
2019-04-27T10:56:07.477Z,18.57
2019-04-27T10:58:36.263Z,18.26
2019-04-27T11:01:06.436Z,18.32
2019-04-27T11:03:51.667Z,18.51
2019-04-27T11:06:33.666Z,18.18
2019-04-27T11:09:02.200Z,18.44
2019-04-27T11:11:31.036Z,19.13
2019-04-27T11:14:01.077Z,19.62
2019-04-27T11:16:29.856Z,19.32
2019-04-27T11:18:58.713Z,20.00
2019-04-27T11:21:27.292Z,20.38
2019-04-27T11:23:56.038Z,19.69
2019-04-27T11:26:26.218Z,20.18
2019-04-27T11:28:54.990Z,20.63
2019-04-27T11:31:23.474Z,20.32
2019-04-27T11:33:52.638Z,20.05
2019-04-27T11:36:25.653Z,20.35
2019-04-27T11:39:02.153Z,20.15
2019-04-27T11:41:30.908Z,20.46
2019-04-27T11:43:59.553Z,20.90
2019-04-27T11:46:28.213Z,22.16
2019-04-27T11:48:58.381Z,21.18
2019-04-27T11:51:27.033Z,21.20
2019-04-27T11:53:55.822Z,21.12
2019-04-27T11:56:24.506Z,21.16
2019-04-27T11:58:52.906Z,20.89
2019-04-27T12:01:21.445Z,22.72
2019-04-27T12:03:49.894Z,21.72
2019-04-27T12:06:18.337Z,21.80
2019-04-27T12:08:46.787Z,23.95
2019-04-27T12:11:16.035Z,27.64
2019-04-27T12:13:46.099Z,29.00
2019-04-27T12:16:17.701Z,27.76
2019-04-27T12:18:48.972Z,24.51
2019-04-27T12:21:16.436Z,22.74
2019-04-27T12:23:44.946Z,21.22
2019-04-27T12:26:15.890Z,20.82
2019-04-27T12:28:51.910Z,21.05
2019-04-27T12:31:25.797Z,20.36
2019-04-27T12:33:56.013Z,20.39
2019-04-27T12:36:25.806Z,19.82
2019-04-27T12:38:54.501Z,19.23
2019-04-27T12:41:24.560Z,18.76
2019-04-27T12:43:53.096Z,18.54
2019-04-27T12:46:21.627Z,18.84
2019-04-27T12:48:50.171Z,18.55
2019-04-27T12:51:20.953Z,18.31
2019-04-27T12:53:52.943Z,17.98
2019-04-27T12:56:28.242Z,17.80
2019-04-27T12:59:01.014Z,17.82
2019-04-27T13:01:30.350Z,17.76
2019-04-27T13:03:59.339Z,17.64
2019-04-27T13:06:27.865Z,17.51
2019-04-27T13:08:56.380Z,17.48
2019-04-27T13:11:26.571Z,17.33
2019-04-27T13:13:57.231Z,17.48
2019-04-27T13:16:27.222Z,17.42
2019-04-27T13:18:55.691Z,17.34
2019-04-27T13:21:26.321Z,17.22
2019-04-27T13:24:02.119Z,17.23
2019-04-27T13:26:25.141Z,17.28
2019-04-27T13:28:53.647Z,17.37
2019-04-27T13:31:22.541Z,17.44
2019-04-27T13:33:52.572Z,17.57
2019-04-27T13:36:21.252Z,17.64
2019-04-27T13:38:49.936Z,17.64
2019-04-27T13:41:27.801Z,17.80
2019-04-27T13:43:48.890Z,17.85
2019-04-27T13:46:26.033Z,17.53
2019-04-27T13:49:02.094Z,17.81
2019-04-27T13:51:47.884Z,17.97
2019-04-27T13:54:25.209Z,18.06
2019-04-27T13:56:47.701Z,17.87
2019-04-27T13:59:16.485Z,17.82
2019-04-27T14:01:45.230Z,17.59
2019-04-27T14:04:14.020Z,17.73
2019-04-27T14:06:44.403Z,17.66
2019-04-27T14:09:12.989Z,17.88
2019-04-27T14:11:41.776Z,17.98
2019-04-27T14:14:10.215Z,17.79
2019-04-27T14:16:39.195Z,17.94
2019-04-27T14:19:08.586Z,18.09
2019-04-27T14:21:38.948Z,18.14
2019-04-27T14:24:07.782Z,18.10
2019-04-27T14:26:38.448Z,18.19
2019-04-27T14:29:08.228Z,18.13
2019-04-27T14:31:39.473Z,18.01
2019-04-27T14:34:09.100Z,18.08
2019-04-27T14:36:38.039Z,19.60
2019-04-27T14:39:09.586Z,20.45
2019-04-27T14:41:38.762Z,20.50
2019-04-27T14:44:10.503Z,20.31
2019-04-27T14:46:38.791Z,19.76
2019-04-27T14:49:07.416Z,19.36
2019-04-27T14:51:35.944Z,19.08
2019-04-27T14:54:04.543Z,19.11
2019-04-27T14:56:33.042Z,19.04
2019-04-27T14:59:01.525Z,19.04
2019-04-27T15:01:30.085Z,19.04
2019-04-27T15:03:58.679Z,19.15
2019-04-27T15:06:27.197Z,18.89
2019-04-27T15:08:55.906Z,18.53
2019-04-27T15:11:24.617Z,18.56
2019-04-27T15:13:54.950Z,18.68
2019-04-27T15:16:23.431Z,18.47
2019-04-27T15:19:02.622Z,18.48
2019-04-27T15:21:32.603Z,18.45
2019-04-27T15:24:04.237Z,18.31
2019-04-27T15:26:32.410Z,18.49
2019-04-27T15:29:02.470Z,18.69
2019-04-27T15:31:32.552Z,18.96
2019-04-27T15:34:02.893Z,19.13
2019-04-27T15:36:52.740Z,19.10
2019-04-27T15:39:30.508Z,19.27
2019-04-27T15:42:01.935Z,19.42
2019-04-27T15:44:31.188Z,19.46
2019-04-27T15:47:03.601Z,19.20
2019-04-27T15:49:31.783Z,19.25
2019-04-27T15:52:00.410Z,19.15
2019-04-27T15:54:31.990Z,18.97
2019-04-27T15:57:01.570Z,18.51
2019-04-27T15:59:37.836Z,18.51
2019-04-27T16:02:05.513Z,18.22
2019-04-27T16:04:34.652Z,17.99
2019-04-27T16:07:03.853Z,18.01
2019-04-27T16:09:32.525Z,17.87
2019-04-27T16:12:09.918Z,17.76
2019-04-27T16:14:31.537Z,17.59
2019-04-27T16:17:03.021Z,17.62
2019-04-27T16:19:30.321Z,17.62
2019-04-27T16:21:59.214Z,17.49
2019-04-27T16:24:29.041Z,17.46
2019-04-27T16:26:59.141Z,17.43
2019-04-27T16:29:31.382Z,17.45
2019-04-27T16:31:58.421Z,17.44
2019-04-27T16:34:28.671Z,17.52
2019-04-27T16:36:57.815Z,17.48
2019-04-27T16:39:26.303Z,17.43
2019-04-27T16:41:54.829Z,17.53
2019-04-27T16:44:23.438Z,17.38
2019-04-27T16:46:52.043Z,17.40
2019-04-27T16:49:20.473Z,17.56
2019-04-27T16:51:49.382Z,17.66
2019-04-27T16:54:21.186Z,17.76
2019-04-27T16:56:52.279Z,17.73
2019-04-27T16:59:39.772Z,17.72
2019-04-27T17:01:50.280Z,17.68
2019-04-27T17:04:19.191Z,17.57
2019-04-27T17:06:49.492Z,17.61
2019-04-27T17:09:18.978Z,17.73
2019-04-27T17:11:50.177Z,17.61
2019-04-27T17:14:22.226Z,17.59
2019-04-27T17:16:54.150Z,17.46
2019-04-27T17:19:24.426Z,17.49
2019-04-27T17:21:52.949Z,17.37
2019-04-27T17:24:42.025Z,17.36
2019-04-27T17:27:06.124Z,17.43
2019-04-27T17:29:36.196Z,17.35
2019-04-27T17:32:05.291Z,17.24
2019-04-27T17:34:33.910Z,17.18
2019-04-27T17:37:02.485Z,17.19
2019-04-27T17:39:31.397Z,17.20
2019-04-27T17:41:59.907Z,17.28
2019-04-27T17:44:30.240Z,17.20
2019-04-27T17:46:58.721Z,17.13
2019-04-27T17:49:28.088Z,17.17
2019-04-27T17:51:58.573Z,17.23
2019-04-27T17:54:29.050Z,17.07
2019-04-27T17:56:57.610Z,17.19
2019-04-27T17:59:26.322Z,17.10
2019-04-27T18:02:00.941Z,17.06
2019-04-27T18:04:25.165Z,17.10
2019-04-27T18:06:55.511Z,17.11
2019-04-27T18:09:24.059Z,17.16
2019-04-27T18:11:54.381Z,17.12
2019-04-27T18:14:22.867Z,17.10
2019-04-27T18:16:51.321Z,17.07
2019-04-27T18:19:21.539Z,17.04
2019-04-27T18:21:52.573Z,16.98
2019-04-27T18:24:25.058Z,16.91
2019-04-27T18:27:03.238Z,16.94
2019-04-27T18:29:30.949Z,16.83
2019-04-27T18:31:59.751Z,16.81
2019-04-27T18:34:28.715Z,16.74
2019-04-27T18:36:58.067Z,16.75
2019-04-27T18:39:26.606Z,16.72
2019-04-27T18:41:55.166Z,16.67
2019-04-27T18:44:28.066Z,16.54
2019-04-27T18:46:58.854Z,16.54
2019-04-27T18:49:34.994Z,16.50
2019-04-27T18:52:06.560Z,16.35
2019-04-27T18:54:38.174Z,16.25
2019-04-27T18:57:10.683Z,16.10
2019-04-27T18:59:38.175Z,16.00
2019-04-27T19:02:08.431Z,15.85
2019-04-27T19:04:37.114Z,15.75
2019-04-27T19:07:06.058Z,15.63
2019-04-27T19:09:34.665Z,15.68
2019-04-27T19:12:03.544Z,15.63
2019-04-27T19:14:32.094Z,15.66
2019-04-27T19:17:01.126Z,15.65
2019-04-27T19:19:29.818Z,15.68
2019-04-27T19:21:59.058Z,15.74
2019-04-27T19:24:28.244Z,15.74
2019-04-27T19:26:58.812Z,15.53
2019-04-27T19:29:29.295Z,15.57
2019-04-27T19:32:02.162Z,15.66
2019-04-27T19:34:30.784Z,15.69
2019-04-27T19:36:59.451Z,15.64
2019-04-27T19:39:28.696Z,15.69
2019-04-27T19:42:02.879Z,15.64
2019-04-27T19:44:29.226Z,15.59
2019-04-27T19:47:00.212Z,15.58
2019-04-27T19:49:29.444Z,15.57
2019-04-27T19:51:59.366Z,15.47
2019-04-27T19:54:30.077Z,15.29
2019-04-27T19:56:59.548Z,15.25
2019-04-27T19:59:37.964Z,14.96
2019-04-27T20:02:08.746Z,15.01
2019-04-27T20:04:38.740Z,15.02
2019-04-27T20:07:10.350Z,15.06
2019-04-27T20:09:45.052Z,15.01
2019-04-27T20:12:13.864Z,14.91
2019-04-27T20:14:57.364Z,14.86
2019-04-27T20:17:31.226Z,14.73
2019-04-27T20:20:00.949Z,14.62
2019-04-27T20:22:29.627Z,14.56
2019-04-27T20:24:58.122Z,14.47
2019-04-27T20:27:26.574Z,14.40
2019-04-27T20:29:55.077Z,14.24
2019-04-27T20:32:24.088Z,14.27
2019-04-27T20:34:52.592Z,14.31
2019-04-27T20:37:21.166Z,14.26
2019-04-27T20:39:51.513Z,14.20
2019-04-27T20:42:21.181Z,14.12
2019-04-27T20:44:51.430Z,14.06
2019-04-27T20:47:20.018Z,13.98
2019-04-27T20:49:48.803Z,13.95
2019-04-27T20:52:20.802Z,13.86
2019-04-27T20:54:51.453Z,13.92
2019-04-27T20:57:19.238Z,14.07
2019-04-27T20:59:47.690Z,14.10
2019-04-27T21:02:32.893Z,14.15
2019-04-27T21:05:02.959Z,14.26
2019-04-27T21:07:42.609Z,14.25
2019-04-27T21:10:11.310Z,14.21
2019-04-27T21:12:41.184Z,14.28
2019-04-27T21:15:11.258Z,14.31
2019-04-27T21:17:40.655Z,14.13
2019-04-27T21:20:11.378Z,13.95
2019-04-27T21:22:41.654Z,13.98
2019-04-27T21:25:11.831Z,13.90
2019-04-27T21:27:41.054Z,13.79
2019-04-27T21:30:11.449Z,13.82
2019-04-27T21:32:39.999Z,13.82
2019-04-27T21:35:10.858Z,13.66
2019-04-27T21:37:41.560Z,13.73
2019-04-27T21:40:15.261Z,13.71
2019-04-27T21:42:43.676Z,13.81
2019-04-27T21:45:12.661Z,13.75
2019-04-27T21:47:44.387Z,13.83
2019-04-27T21:50:13.223Z,13.93
2019-04-27T21:52:43.492Z,13.96
2019-04-27T21:55:13.611Z,13.90
2019-04-27T21:57:42.337Z,13.82
2019-04-27T22:00:38.785Z,13.78
2019-04-27T22:03:07.590Z,13.70
2019-04-27T22:05:36.171Z,13.38
2019-04-27T22:08:04.864Z,13.49
2019-04-27T22:10:33.394Z,13.40
2019-04-27T22:13:06.591Z,13.29
2019-04-27T22:15:35.015Z,13.24
2019-04-27T22:18:03.549Z,13.16
2019-04-27T22:20:33.467Z,13.07
2019-04-27T22:23:06.411Z,13.14
2019-04-27T22:25:38.955Z,13.24
2019-04-27T22:28:07.750Z,13.14
2019-04-27T22:30:36.643Z,13.08
2019-04-27T22:33:05.048Z,13.15
2019-04-27T22:35:33.577Z,12.97
2019-04-27T22:38:02.499Z,13.03
2019-04-27T22:40:38.343Z,13.05
2019-04-27T22:43:08.441Z,12.99
2019-04-27T22:45:38.475Z,12.86
2019-04-27T22:48:06.948Z,12.83
2019-04-27T22:50:35.388Z,12.80
2019-04-27T22:53:03.897Z,12.75
2019-04-27T22:55:32.386Z,12.70
2019-04-27T22:58:08.646Z,12.63
2019-04-27T23:00:51.391Z,12.50
2019-04-27T23:03:24.191Z,12.56
2019-04-27T23:05:52.695Z,12.59
2019-04-27T23:08:22.708Z,12.60
2019-04-27T23:10:51.477Z,12.62
2019-04-27T23:13:21.350Z,12.60
2019-04-27T23:15:51.455Z,12.54
2019-04-27T23:18:20.850Z,12.63
2019-04-27T23:20:50.026Z,12.67
2019-04-27T23:23:18.548Z,12.49
2019-04-27T23:25:47.004Z,12.34
2019-04-27T23:28:15.559Z,12.33
2019-04-27T23:30:45.654Z,12.42
2019-04-27T23:33:14.189Z,12.41
2019-04-27T23:35:42.672Z,12.42
2019-04-27T23:38:17.662Z,12.50
2019-04-27T23:40:41.825Z,12.32
2019-04-27T23:43:11.481Z,12.26
2019-04-27T23:45:41.795Z,12.29
2019-04-27T23:48:12.233Z,12.33
2019-04-27T23:50:42.581Z,12.25
2019-04-27T23:53:18.531Z,12.34
2019-04-27T23:55:46.963Z,12.37
2019-04-27T23:58:15.459Z,12.45
